Time;durP1;ratioP1;P1;durP2;ratioP2;P2;SDS_P1;SDS_P2;PMS_P1;PMS_P2;Temp;Humidity;BMP_temperature;BMP_pressure;BME280_temperature;BME280_humidity;BME280_pressure;Samples;Min_cycle;Max_cycle;Signal;HPM_P1;HPM_P2
2022/02/22 00:02:02;;;;;;;0.70;0.70;;;9.30;99.90;;;;;;5090120;28;20481;-81
2022/02/22 00:04:33;;;;;;;1.70;0.70;;;9.30;99.90;;;;;;5086973;28;20486;-78
2022/02/22 00:07:01;;;;;;;2.80;0.83;;;9.40;99.90;;;;;;5093225;28;20461;-80
2022/02/22 00:09:30;;;;;;;3.30;1.47;;;9.40;99.90;;;;;;5083305;28;20451;-80
2022/02/22 00:12:00;;;;;;;1.17;0.90;;;9.50;99.90;;;;;;5086219;28;20487;-79
2022/02/22 00:14:28;;;;;;;0.60;0.60;;;9.40;99.90;;;;;;5087968;28;21424;-80
2022/02/22 00:16:56;;;;;;;1.00;0.90;;;9.40;99.90;;;;;;5086304;28;20456;-79
2022/02/22 00:19:25;;;;;;;1.83;0.70;;;9.30;99.90;;;;;;5088585;28;20461;-80
2022/02/22 00:21:55;;;;;;;1.17;0.70;;;9.30;99.90;;;;;;5089665;28;20479;-79
2022/02/22 00:24:24;;;;;;;2.53;0.80;;;9.30;99.90;;;;;;5088911;28;20462;-79
2022/02/22 00:26:52;;;;;;;0.60;0.60;;;9.20;99.90;;;;;;5091427;28;20461;-80
2022/02/22 00:29:22;;;;;;;2.03;0.70;;;9.20;99.90;;;;;;5088789;28;20544;-82
2022/02/22 00:31:51;;;;;;;1.60;0.67;;;9.20;99.90;;;;;;5083523;28;20470;-83
2022/02/22 00:34:19;;;;;;;1.50;0.77;;;9.20;99.90;;;;;;5085810;28;20515;-82
2022/02/22 00:36:49;;;;;;;6.07;0.83;;;9.20;99.90;;;;;;5085843;28;20456;-83
2022/02/22 00:39:17;;;;;;;1.70;0.70;;;9.10;99.90;;;;;;5088320;28;21141;-82
2022/02/22 00:41:45;;;;;;;2.13;0.77;;;9.20;99.90;;;;;;5095703;28;20481;-82
2022/02/22 00:44:14;;;;;;;1.67;0.87;;;9.30;99.90;;;;;;5092156;28;20444;-82
2022/02/22 00:46:44;;;;;;;2.93;0.70;;;9.30;99.90;;;;;;5091209;28;20460;-82
2022/02/22 00:49:12;;;;;;;3.27;0.60;;;9.30;99.90;;;;;;5094999;28;20475;-83
2022/02/22 00:51:40;;;;;;;1.97;0.60;;;9.50;99.90;;;;;;5097898;28;20442;-81
2022/02/22 00:54:08;;;;;;;1.30;0.70;;;9.20;99.90;;;;;;5092647;28;20464;-81
2022/02/22 00:56:37;;;;;;;4.43;1.00;;;9.10;99.90;;;;;;5097582;28;21311;-82
2022/02/22 00:59:05;;;;;;;1.97;0.90;;;9.10;99.90;;;;;;5089109;28;20904;-82
2022/02/22 01:01:33;;;;;;;1.53;0.80;;;9.20;99.90;;;;;;5088834;28;20485;-82
2022/02/22 01:04:03;;;;;;;2.73;1.50;;;9.20;99.90;;;;;;5090257;28;20509;-82
2022/02/22 01:06:31;;;;;;;4.70;1.10;;;9.20;99.90;;;;;;5088629;28;20461;-80
2022/02/22 01:09:00;;;;;;;1.80;0.70;;;9.30;99.90;;;;;;5083779;28;20452;-82
2022/02/22 01:11:29;;;;;;;1.97;0.70;;;9.40;99.90;;;;;;5089841;28;20449;-82
2022/02/22 01:13:59;;;;;;;0.80;0.70;;;9.40;99.90;;;;;;5088586;28;20475;-83
2022/02/22 01:16:28;;;;;;;3.10;0.70;;;9.40;99.90;;;;;;5085365;28;20529;-82
2022/02/22 01:18:56;;;;;;;2.83;0.60;;;9.20;99.90;;;;;;5089007;28;20903;-83
2022/02/22 01:21:27;;;;;;;2.50;0.87;;;9.20;99.90;;;;;;5085748;28;20488;-82
2022/02/22 01:23:55;;;;;;;2.10;0.60;;;9.20;99.90;;;;;;5089934;28;20482;-82
2022/02/22 01:26:24;;;;;;;3.73;1.03;;;9.20;99.90;;;;;;5084178;28;20453;-82
2022/02/22 01:28:52;;;;;;;0.87;0.73;;;9.20;99.90;;;;;;5090173;28;20964;-84
2022/02/22 01:31:21;;;;;;;1.03;0.80;;;9.20;99.90;;;;;;5082449;28;20445;-82
2022/02/22 01:33:54;;;;;;;1.60;0.80;;;9.20;99.90;;;;;;5082217;28;20519;-85
2022/02/22 01:36:22;;;;;;;0.67;0.60;;;9.20;99.90;;;;;;5089096;28;20504;-82
2022/02/22 01:38:53;;;;;;;8.43;1.57;;;9.30;99.90;;;;;;5086431;28;20974;-82
2022/02/22 01:41:21;;;;;;;3.50;0.80;;;9.30;99.90;;;;;;5090579;28;20484;-82
2022/02/22 01:43:50;;;;;;;1.63;0.67;;;9.30;99.90;;;;;;5081933;28;20476;-83
2022/02/22 01:46:19;;;;;;;2.70;0.70;;;9.20;99.90;;;;;;5086956;28;20496;-82
2022/02/22 01:48:47;;;;;;;2.10;0.60;;;9.20;99.90;;;;;;5087440;28;20463;-83
2022/02/22 01:51:15;;;;;;;1.27;0.60;;;9.10;99.90;;;;;;5087458;28;20447;-81
2022/02/22 01:53:44;;;;;;;1.43;0.60;;;9.10;99.90;;;;;;5077566;28;20493;-82
2022/02/22 01:56:16;;;;;;;0.80;0.80;;;9.00;99.90;;;;;;5088242;28;20451;-81
2022/02/22 01:58:45;;;;;;;0.50;0.50;;;9.00;99.90;;;;;;5088651;28;20459;-81
2022/02/22 02:01:13;;;;;;;0.67;0.43;;;8.90;99.90;;;;;;5089092;28;20500;-82
2022/02/22 02:03:41;;;;;;;0.50;0.50;;;8.80;99.90;;;;;;5083554;28;20479;-81
2022/02/22 02:06:10;;;;;;;1.13;0.70;;;8.80;99.90;;;;;;5086086;28;20475;-82
2022/02/22 02:08:38;;;;;;;0.60;0.60;;;8.80;99.90;;;;;;5090444;28;20465;-82
2022/02/22 02:11:10;;;;;;;0.70;0.60;;;8.80;99.90;;;;;;5092225;28;20444;-81
2022/02/22 02:13:39;;;;;;;1.17;0.50;;;8.80;99.90;;;;;;5090875;28;20487;-82
2022/02/22 02:16:08;;;;;;;0.90;0.60;;;8.80;99.90;;;;;;5093502;28;20456;-81
2022/02/22 02:18:36;;;;;;;1.40;0.60;;;8.80;99.90;;;;;;5087341;28;20479;-82
2022/02/22 02:21:04;;;;;;;5.63;0.60;;;8.70;99.90;;;;;;5093044;28;20537;-82
2022/02/22 02:23:34;;;;;;;1.30;1.20;;;8.80;99.90;;;;;;5094451;28;20903;-81
2022/02/22 02:26:03;;;;;;;0.80;0.70;;;8.80;99.90;;;;;;5086393;28;20876;-82
2022/02/22 02:28:32;;;;;;;1.13;0.60;;;9.00;99.90;;;;;;5085769;28;20521;-82
2022/02/22 02:31:00;;;;;;;2.20;1.00;;;8.70;99.90;;;;;;5089880;28;20504;-84
2022/02/22 02:33:28;;;;;;;0.90;0.77;;;8.60;99.90;;;;;;5090894;28;20491;-83
2022/02/22 02:35:56;;;;;;;1.07;0.73;;;8.60;99.90;;;;;;5089744;28;20453;-83
2022/02/22 02:38:24;;;;;;;3.20;0.90;;;8.60;99.90;;;;;;5088837;28;20482;-83
2022/02/22 02:40:54;;;;;;;2.30;0.77;;;8.60;99.90;;;;;;5089120;28;20459;-84
2022/02/22 02:43:23;;;;;;;2.30;0.90;;;8.60;99.90;;;;;;5086476;28;20476;-81
2022/02/22 02:45:51;;;;;;;1.37;0.80;;;8.60;99.90;;;;;;5091428;28;20451;-81
2022/02/22 02:48:19;;;;;;;4.93;1.00;;;8.60;99.90;;;;;;5090173;28;20451;-81
2022/02/22 02:50:47;;;;;;;3.07;0.70;;;8.50;99.90;;;;;;5091789;28;20551;-81
2022/02/22 02:53:16;;;;;;;2.20;0.80;;;8.50;99.90;;;;;;5087384;28;20844;-82
2022/02/22 02:55:44;;;;;;;5.03;0.73;;;8.50;99.90;;;;;;5089616;28;20460;-79
2022/02/22 02:58:13;;;;;;;4.23;2.70;;;8.50;99.90;;;;;;5088254;28;20460;-80
2022/02/22 03:00:42;;;;;;;1.37;0.80;;;8.50;99.90;;;;;;5090720;28;20535;-80
2022/02/22 03:03:10;;;;;;;2.93;0.83;;;8.80;99.90;;;;;;5091461;28;20484;-81
2022/02/22 03:05:39;;;;;;;0.80;0.80;;;8.60;99.90;;;;;;5090280;28;21038;-81
2022/02/22 03:08:07;;;;;;;3.77;0.90;;;8.60;99.90;;;;;;5090979;28;20986;-81
2022/02/22 03:10:35;;;;;;;0.60;0.60;;;8.60;99.90;;;;;;5087147;28;20980;-82
2022/02/22 03:13:04;;;;;;;3.00;0.70;;;8.50;99.90;;;;;;5091136;28;20471;-82
2022/02/22 03:15:33;;;;;;;1.40;0.70;;;8.60;99.90;;;;;;5091024;28;20854;-82
2022/02/22 03:18:01;;;;;;;3.03;0.80;;;8.60;99.90;;;;;;5091612;28;20456;-82
2022/02/22 03:20:30;;;;;;;3.00;0.83;;;8.60;99.90;;;;;;5090563;28;20440;-82
2022/02/22 03:22:58;;;;;;;3.60;0.77;;;8.70;99.90;;;;;;5091789;28;20466;-82
2022/02/22 03:25:28;;;;;;;1.80;0.60;;;8.60;99.90;;;;;;5092325;28;20459;-82
2022/02/22 03:27:57;;;;;;;3.43;1.00;;;8.50;99.90;;;;;;5093044;28;20453;-82
2022/02/22 03:30:26;;;;;;;4.80;0.90;;;8.60;99.90;;;;;;5088267;28;20679;-83
2022/02/22 03:32:56;;;;;;;3.43;0.80;;;8.60;99.90;;;;;;5087756;28;20478;-82
2022/02/22 03:35:24;;;;;;;2.30;0.80;;;8.50;99.90;;;;;;5089791;28;20460;-83
2022/02/22 03:37:52;;;;;;;1.93;0.90;;;8.40;99.90;;;;;;5090237;28;20822;-83
2022/02/22 03:40:21;;;;;;;3.63;3.33;;;8.40;99.90;;;;;;5093651;28;20462;-82
2022/02/22 03:42:51;;;;;;;2.73;0.90;;;8.10;99.90;;;;;;5086786;28;20471;-82
2022/02/22 03:45:19;;;;;;;0.87;0.70;;;8.10;99.90;;;;;;5094145;28;20942;-84
2022/02/22 03:47:47;;;;;;;1.90;0.80;;;8.10;99.90;;;;;;5093273;28;20444;-83
2022/02/22 03:50:17;;;;;;;3.23;1.13;;;8.30;99.90;;;;;;5093530;28;20452;-83
2022/02/22 03:52:46;;;;;;;3.90;0.83;;;8.30;99.90;;;;;;5087058;28;20455;-84
2022/02/22 03:55:14;;;;;;;6.73;1.00;;;8.40;99.90;;;;;;5089364;28;20466;-83
2022/02/22 03:57:43;;;;;;;1.10;0.77;;;8.40;99.90;;;;;;5083181;28;20963;-83
2022/02/22 04:00:15;;;;;;;0.70;0.70;;;8.50;99.90;;;;;;5092106;28;20452;-83
2022/02/22 04:02:44;;;;;;;1.50;0.90;;;8.50;99.90;;;;;;5085233;28;20521;-82
2022/02/22 04:05:12;;;;;;;4.57;1.07;;;8.50;99.90;;;;;;5090989;28;20463;-82
2022/02/22 04:07:42;;;;;;;1.33;0.80;;;8.50;99.90;;;;;;5090493;28;20474;-82
2022/02/22 04:10:11;;;;;;;1.20;0.80;;;8.50;99.90;;;;;;5087867;28;20815;-82
2022/02/22 04:12:40;;;;;;;0.70;0.70;;;8.60;99.90;;;;;;5087317;28;20468;-82
2022/02/22 04:15:10;;;;;;;3.13;1.03;;;9.00;99.90;;;;;;5087423;28;20447;-81
2022/02/22 04:17:38;;;;;;;0.90;0.70;;;8.70;99.90;;;;;;5093006;28;20463;-81
2022/02/22 04:20:08;;;;;;;4.50;0.90;;;8.70;99.90;;;;;;5092254;28;20456;-83
2022/02/22 04:22:36;;;;;;;2.20;1.67;;;8.50;99.90;;;;;;5092332;28;20484;-81
2022/02/22 04:25:07;;;;;;;1.27;1.00;;;8.50;99.90;;;;;;5091670;28;20530;-81
2022/02/22 04:27:36;;;;;;;4.00;0.90;;;8.50;99.90;;;;;;5080164;28;20826;-81
2022/02/22 04:30:05;;;;;;;2.33;1.10;;;8.40;99.90;;;;;;5078603;28;20462;-82
2022/02/22 04:32:34;;;;;;;1.37;1.00;;;8.00;99.90;;;;;;5080431;28;20979;-82
2022/02/22 04:35:02;;;;;;;1.43;0.70;;;8.30;99.90;;;;;;5081325;28;20454;-82
2022/02/22 04:37:30;;;;;;;2.43;0.97;;;8.30;99.90;;;;;;5082315;28;20870;-83
2022/02/22 04:39:59;;;;;;;1.97;0.90;;;8.50;99.90;;;;;;5089644;28;20451;-82
2022/02/22 04:42:28;;;;;;;1.20;0.73;;;8.30;99.90;;;;;;5084385;28;20987;-82
2022/02/22 04:44:56;;;;;;;1.53;1.00;;;8.30;99.90;;;;;;5089685;28;20463;-82
2022/02/22 04:47:25;;;;;;;1.60;1.27;;;8.30;99.90;;;;;;5087867;28;20466;-82
2022/02/22 04:49:53;;;;;;;2.87;0.90;;;8.30;99.90;;;;;;5085857;28;20812;-82
2022/02/22 04:52:21;;;;;;;0.90;0.83;;;8.30;99.90;;;;;;5084353;28;20494;-83
2022/02/22 04:54:49;;;;;;;2.23;1.13;;;8.40;99.90;;;;;;5084207;28;20452;-81
2022/02/22 04:57:18;;;;;;;0.80;0.70;;;8.40;99.90;;;;;;5086697;28;20443;-83
2022/02/22 04:59:47;;;;;;;3.67;1.00;;;8.40;99.90;;;;;;5084524;28;20451;-83
2022/02/22 05:02:16;;;;;;;2.07;1.03;;;8.30;99.90;;;;;;5093001;28;20471;-84
2022/02/22 05:04:44;;;;;;;1.90;1.13;;;8.30;99.90;;;;;;5087424;28;20447;-82
2022/02/22 05:07:12;;;;;;;6.80;1.10;;;8.20;99.90;;;;;;5088433;28;20451;-82
2022/02/22 05:09:40;;;;;;;1.37;1.23;;;8.30;99.90;;;;;;5087366;28;20450;-83
2022/02/22 05:12:10;;;;;;;3.93;1.60;;;8.20;99.90;;;;;;5089545;28;20470;-83
2022/02/22 05:14:39;;;;;;;0.70;0.70;;;8.20;99.90;;;;;;5080476;28;20836;-81
2022/02/22 05:17:08;;;;;;;1.43;1.03;;;8.20;99.90;;;;;;5085626;28;20478;-81
2022/02/22 05:19:36;;;;;;;4.47;1.30;;;8.30;99.90;;;;;;5082998;28;20463;-79
2022/02/22 05:22:05;;;;;;;6.40;1.00;;;8.30;99.90;;;;;;5082551;28;20481;-81
2022/02/22 05:24:34;;;;;;;2.30;0.77;;;8.40;99.90;;;;;;5091363;28;20463;-81
2022/02/22 05:27:02;;;;;;;5.30;1.20;;;8.50;99.90;;;;;;5090763;28;20463;-81
2022/02/22 05:29:30;;;;;;;1.47;0.90;;;8.60;99.90;;;;;;5089434;28;20475;-81
2022/02/22 05:31:59;;;;;;;1.20;1.10;;;8.50;99.90;;;;;;5093457;28;21055;-74
2022/02/22 05:34:29;;;;;;;2.77;1.00;;;8.40;99.90;;;;;;5086589;28;20450;-80
2022/02/22 05:36:59;;;;;;;4.70;1.23;;;8.30;99.90;;;;;;5086287;28;20447;-79
2022/02/22 05:39:28;;;;;;;3.53;1.40;;;8.20;99.90;;;;;;5082994;28;20436;-81
2022/02/22 05:41:56;;;;;;;1.70;1.00;;;8.20;99.90;;;;;;5086852;28;20213;-79
2022/02/22 05:44:24;;;;;;;4.33;1.03;;;8.20;99.90;;;;;;5090452;28;20498;-80
2022/02/22 05:46:53;;;;;;;0.93;0.70;;;8.20;99.90;;;;;;5084791;28;20873;-78
2022/02/22 05:49:25;;;;;;;1.80;0.90;;;8.30;99.90;;;;;;5087509;28;20447;-79
2022/02/22 05:51:55;;;;;;;3.80;1.17;;;8.30;99.90;;;;;;5089784;28;20453;-79
2022/02/22 05:54:23;;;;;;;3.87;1.03;;;8.30;99.90;;;;;;5090271;28;20451;-79
2022/02/22 05:56:52;;;;;;;1.60;0.90;;;8.40;99.90;;;;;;5088805;28;20462;-79
2022/02/22 05:59:20;;;;;;;3.20;1.07;;;8.40;99.90;;;;;;5089712;28;20992;-79
2022/02/22 06:01:49;;;;;;;2.07;1.63;;;8.30;99.90;;;;;;5088562;28;20470;-80
2022/02/22 06:04:17;;;;;;;4.13;1.10;;;8.40;99.90;;;;;;5088939;28;20486;-79
2022/02/22 06:06:45;;;;;;;7.13;1.00;;;8.30;99.90;;;;;;5084322;28;20459;-79
2022/02/22 06:09:15;;;;;;;1.63;0.83;;;8.40;99.90;;;;;;5089702;28;20451;-79
2022/02/22 06:11:43;;;;;;;1.70;1.60;;;8.40;99.90;;;;;;5080551;28;21174;-80
2022/02/22 06:14:11;;;;;;;0.93;0.80;;;8.30;99.90;;;;;;5083318;28;20447;-79
2022/02/22 06:16:39;;;;;;;1.20;0.93;;;8.40;99.90;;;;;;5083872;28;20719;-78
2022/02/22 06:19:08;;;;;;;1.70;1.20;;;8.40;99.90;;;;;;5088184;28;20466;-79
2022/02/22 06:21:36;;;;;;;3.00;1.20;;;8.30;99.90;;;;;;5087985;28;20453;-78
2022/02/22 06:24:05;;;;;;;2.73;2.20;;;8.30;99.90;;;;;;5086290;28;20479;-78
2022/02/22 06:26:34;;;;;;;1.10;1.00;;;8.40;99.90;;;;;;5091477;28;20449;-78
2022/02/22 06:29:03;;;;;;;1.07;0.97;;;8.50;99.90;;;;;;5078404;28;20451;-78
2022/02/22 06:31:31;;;;;;;5.30;0.83;;;8.50;99.90;;;;;;5088096;28;20508;-79
2022/02/22 06:33:59;;;;;;;7.33;0.90;;;8.60;99.90;;;;;;5091507;28;20441;-78
2022/02/22 06:36:27;;;;;;;2.73;1.00;;;8.50;99.90;;;;;;5090592;28;20436;-79
2022/02/22 06:38:55;;;;;;;4.13;1.00;;;8.60;99.90;;;;;;5090449;28;21141;-79
2022/02/22 06:41:26;;;;;;;1.80;1.10;;;8.60;99.90;;;;;;5085284;28;20490;-78
2022/02/22 06:43:56;;;;;;;1.90;1.10;;;8.60;99.90;;;;;;5079982;28;20484;-78
2022/02/22 06:46:24;;;;;;;3.07;0.90;;;8.60;99.90;;;;;;5077125;28;20559;-79
2022/02/22 06:48:52;;;;;;;1.43;1.00;;;8.60;99.90;;;;;;5087775;28;20453;-78
2022/02/22 06:51:20;;;;;;;3.80;0.97;;;8.60;99.90;;;;;;5086557;28;20494;-79
2022/02/22 06:53:49;;;;;;;3.80;0.80;;;8.70;99.90;;;;;;5080354;28;20515;-78
2022/02/22 06:56:17;;;;;;;3.83;0.90;;;8.60;99.90;;;;;;5088344;28;20465;-80
2022/02/22 06:58:47;;;;;;;5.20;1.20;;;8.50;99.90;;;;;;5086559;28;20552;-78
2022/02/22 07:01:15;;;;;;;1.50;0.93;;;8.60;99.90;;;;;;5088258;28;20531;-77
2022/02/22 07:03:44;;;;;;;2.57;0.83;;;8.60;99.90;;;;;;5083699;28;20528;-79
2022/02/22 07:06:13;;;;;;;4.30;1.00;;;8.70;99.90;;;;;;5086055;28;20454;-78
2022/02/22 07:08:41;;;;;;;3.70;1.00;;;8.70;99.90;;;;;;5075570;28;20953;-79
2022/02/22 07:11:09;;;;;;;2.37;1.10;;;8.80;99.90;;;;;;5071003;28;20452;-78
2022/02/22 07:13:37;;;;;;;0.70;0.70;;;8.80;99.90;;;;;;5077978;28;20481;-78
2022/02/22 07:16:07;;;;;;;2.10;1.87;;;8.80;99.90;;;;;;5070555;28;21421;-78
2022/02/22 07:18:36;;;;;;;1.47;0.93;;;8.80;99.90;;;;;;5077121;28;20487;-78
2022/02/22 07:21:04;;;;;;;4.70;1.50;;;8.80;99.90;;;;;;5086680;28;20469;-79
2022/02/22 07:23:33;;;;;;;4.20;1.83;;;8.90;99.90;;;;;;5090697;28;20477;-80
2022/02/22 07:26:01;;;;;;;4.43;1.30;;;9.10;99.90;;;;;;5089627;28;20444;-78
2022/02/22 07:28:29;;;;;;;2.57;1.20;;;9.10;99.90;;;;;;5077141;28;20463;-79
2022/02/22 07:30:58;;;;;;;2.30;1.20;;;9.10;99.90;;;;;;5069644;28;20894;-78
2022/02/22 07:33:27;;;;;;;1.57;1.13;;;9.40;99.90;;;;;;5082882;28;20455;-80
2022/02/22 07:35:55;;;;;;;1.00;0.90;;;9.20;99.90;;;;;;5092083;28;20443;-78
2022/02/22 07:38:24;;;;;;;3.90;1.03;;;9.20;99.90;;;;;;5085866;28;20455;-79
2022/02/22 07:40:52;;;;;;;2.47;1.40;;;9.10;99.90;;;;;;5086081;28;20456;-75
2022/02/22 07:43:20;;;;;;;3.03;1.00;;;9.10;99.90;;;;;;5082221;28;20469;-79
2022/02/22 07:45:48;;;;;;;2.30;1.10;;;9.10;99.90;;;;;;5082190;28;20437;-79
2022/02/22 07:48:17;;;;;;;2.00;1.00;;;9.20;99.90;;;;;;5085632;28;20662;-78
2022/02/22 07:50:48;;;;;;;2.00;0.80;;;9.30;99.90;;;;;;5085607;28;20449;-79
2022/02/22 07:53:16;;;;;;;3.80;1.53;;;9.30;99.90;;;;;;5088315;28;20488;-79
2022/02/22 07:55:46;;;;;;;2.57;1.00;;;9.40;99.90;;;;;;5079056;28;20463;-78
2022/02/22 07:58:16;;;;;;;1.93;1.20;;;9.50;99.90;;;;;;5087896;28;20463;-78
2022/02/22 08:00:44;;;;;;;6.33;1.00;;;9.50;99.90;;;;;;5069873;28;20946;-78
2022/02/22 08:03:12;;;;;;;3.13;1.00;;;9.60;99.90;;;;;;5085001;28;20481;-78
2022/02/22 08:05:40;;;;;;;4.40;1.20;;;9.70;99.90;;;;;;5085093;28;21004;-79
2022/02/22 08:08:11;;;;;;;3.10;1.27;;;9.80;99.90;;;;;;5082457;28;20457;-79
2022/02/22 08:10:39;;;;;;;5.50;1.53;;;10.00;99.90;;;;;;5083897;28;20487;-79
2022/02/22 08:13:07;;;;;;;0.90;0.70;;;10.10;99.90;;;;;;5078986;28;20470;-79
2022/02/22 08:15:36;;;;;;;1.87;0.90;;;10.30;99.90;;;;;;5072509;28;20451;-79
2022/02/22 08:18:04;;;;;;;3.40;0.93;;;10.40;99.90;;;;;;5079360;28;20491;-79
2022/02/22 08:20:33;;;;;;;3.23;1.00;;;10.50;99.90;;;;;;5081387;28;20813;-79
2022/02/22 08:23:02;;;;;;;2.07;0.90;;;10.70;99.90;;;;;;5084377;28;20538;-79
2022/02/22 08:25:32;;;;;;;2.07;0.83;;;10.80;99.90;;;;;;5085057;28;20480;-79
2022/02/22 08:28:09;;;;;;;5.57;1.00;;;10.90;99.90;;;;;;5085870;28;21059;-79
2022/02/22 08:30:38;;;;;;;4.60;1.60;;;11.00;99.90;;;;;;5085349;28;20451;-79
2022/02/22 08:33:08;;;;;;;4.80;1.30;;;11.20;99.90;;;;;;5071432;28;20481;-79
2022/02/22 08:35:37;;;;;;;1.70;0.80;;;11.30;99.90;;;;;;5088052;28;20949;-80
2022/02/22 08:38:05;;;;;;;2.30;0.90;;;11.40;99.90;;;;;;5079787;28;21084;-80
2022/02/22 08:40:35;;;;;;;2.93;1.60;;;11.40;99.90;;;;;;5087037;28;20204;-79
2022/02/22 08:43:04;;;;;;;3.90;1.30;;;11.40;99.90;;;;;;5087673;28;20466;-79
2022/02/22 08:45:32;;;;;;;2.13;2.03;;;11.30;99.90;;;;;;5086453;28;20510;-79
2022/02/22 08:48:02;;;;;;;2.23;1.20;;;11.30;99.90;;;;;;5076892;28;20448;-79
2022/02/22 08:50:30;;;;;;;1.73;0.90;;;11.40;99.90;;;;;;5090900;28;20450;-78
2022/02/22 08:53:01;;;;;;;2.00;0.83;;;11.00;99.90;;;;;;5085935;28;20549;-79
2022/02/22 08:55:30;;;;;;;3.60;1.50;;;11.00;99.90;;;;;;5088785;28;20437;-78
2022/02/22 08:58:00;;;;;;;3.03;0.80;;;10.80;99.90;;;;;;5084844;28;20454;-78
2022/02/22 09:00:31;;;;;;;1.90;1.53;;;10.70;99.90;;;;;;5086552;28;20455;-78
2022/02/22 09:03:00;;;;;;;3.30;1.83;;;10.60;99.90;;;;;;5077577;28;20465;-79
2022/02/22 09:05:30;;;;;;;3.33;1.40;;;10.40;99.90;;;;;;5084645;28;20470;-79
2022/02/22 09:07:58;;;;;;;1.00;0.90;;;10.50;99.90;;;;;;5082021;28;20453;-79
2022/02/22 09:10:27;;;;;;;0.90;0.60;;;10.50;99.90;;;;;;5080426;28;20467;-79
2022/02/22 09:12:56;;;;;;;2.33;0.90;;;10.50;99.90;;;;;;5082087;28;20513;-78
2022/02/22 09:15:31;;;;;;;2.80;1.20;;;10.30;99.90;;;;;;5089982;28;20443;-79
2022/02/22 09:18:01;;;;;;;2.43;0.80;;;10.30;99.90;;;;;;5069417;28;21553;-79
2022/02/22 09:20:30;;;;;;;1.10;0.80;;;10.40;99.90;;;;;;5074010;28;20488;-78
2022/02/22 09:22:59;;;;;;;3.07;0.90;;;10.40;99.90;;;;;;5082362;28;20459;-79
2022/02/22 09:25:32;;;;;;;2.30;1.27;;;10.40;99.90;;;;;;5084058;28;20489;-78
2022/02/22 09:28:01;;;;;;;1.50;0.80;;;10.40;99.90;;;;;;5083009;28;20448;-79
2022/02/22 09:30:33;;;;;;;4.57;0.90;;;10.30;99.90;;;;;;5088678;28;20445;-79
2022/02/22 09:33:03;;;;;;;2.10;1.20;;;10.20;99.90;;;;;;5074204;28;20461;-78
2022/02/22 09:35:32;;;;;;;5.60;0.80;;;10.20;99.90;;;;;;5077812;28;21789;-78
2022/02/22 09:38:01;;;;;;;1.70;0.87;;;10.20;99.90;;;;;;5068512;28;20482;-78
2022/02/22 09:40:30;;;;;;;1.03;0.77;;;10.20;99.90;;;;;;5079395;28;20456;-78
2022/02/22 09:42:59;;;;;;;2.60;1.10;;;10.30;99.90;;;;;;5082957;28;20466;-78
2022/02/22 09:45:28;;;;;;;1.63;1.30;;;10.10;99.90;;;;;;5091697;28;20567;-78
2022/02/22 09:48:01;;;;;;;2.57;0.97;;;10.10;99.90;;;;;;5074902;28;20536;-79
2022/02/22 09:50:30;;;;;;;2.47;0.83;;;10.20;99.90;;;;;;5069520;28;20579;-80
2022/02/22 09:52:59;;;;;;;2.43;1.00;;;10.10;99.90;;;;;;5078310;28;20468;-78
2022/02/22 09:55:27;;;;;;;1.43;0.80;;;10.20;99.90;;;;;;5084649;28;20449;-78
2022/02/22 09:57:56;;;;;;;3.43;1.27;;;10.60;99.90;;;;;;5084984;28;20476;-78
2022/02/22 10:00:27;;;;;;;5.00;0.90;;;10.10;99.90;;;;;;5086120;28;20444;-78
2022/02/22 10:03:03;;;;;;;0.70;0.70;;;10.10;99.90;;;;;;5078870;28;20471;-78
2022/02/22 10:05:32;;;;;;;2.10;0.90;;;10.20;99.90;;;;;;5083390;28;20469;-79
2022/02/22 10:08:02;;;;;;;3.97;1.20;;;10.20;99.90;;;;;;5082968;28;20448;-79
2022/02/22 10:10:36;;;;;;;6.40;1.30;;;10.30;99.90;;;;;;5083435;28;20552;-78
2022/02/22 10:13:06;;;;;;;3.27;0.97;;;10.20;99.90;;;;;;5082634;28;20467;-78
2022/02/22 10:15:39;;;;;;;2.10;0.83;;;10.20;99.90;;;;;;5084012;28;20863;-78
2022/02/22 10:18:10;;;;;;;2.47;1.10;;;10.10;99.90;;;;;;5073404;28;20459;-78
2022/02/22 10:20:39;;;;;;;2.63;1.10;;;10.10;99.90;;;;;;5070024;28;20457;-78
2022/02/22 10:23:09;;;;;;;2.63;1.10;;;10.20;99.90;;;;;;5068647;28;20557;-79
2022/02/22 10:25:38;;;;;;;2.83;1.60;;;10.30;99.90;;;;;;5081411;28;20498;-78
2022/02/22 10:28:07;;;;;;;2.90;0.90;;;10.30;99.90;;;;;;5087009;28;20459;-79
2022/02/22 10:30:40;;;;;;;1.90;0.93;;;10.40;99.90;;;;;;5093418;28;20883;-79
2022/02/22 10:33:13;;;;;;;2.93;0.93;;;10.60;99.90;;;;;;5087283;28;20473;-79
2022/02/22 10:35:45;;;;;;;2.30;1.23;;;10.60;99.90;;;;;;5080153;28;20545;-78
2022/02/22 10:38:17;;;;;;;2.57;1.20;;;10.60;99.90;;;;;;5088507;28;20465;-78
2022/02/22 10:40:56;;;;;;;3.10;1.00;;;10.60;99.90;;;;;;5097919;28;20451;-78
2022/02/22 10:43:31;;;;;;;5.80;1.10;;;10.80;99.90;;;;;;5088528;28;20477;-79
2022/02/22 10:46:01;;;;;;;4.93;1.50;;;11.00;99.90;;;;;;5092200;28;20574;-81
2022/02/22 10:48:35;;;;;;;2.77;1.10;;;11.00;99.90;;;;;;5080072;28;20561;-78
2022/02/22 10:51:05;;;;;;;2.00;0.90;;;11.00;99.90;;;;;;5078124;28;20445;-80
2022/02/22 10:53:37;;;;;;;2.70;1.00;;;11.20;99.90;;;;;;5072878;28;20585;-78
2022/02/22 10:56:09;;;;;;;4.33;1.17;;;11.20;99.90;;;;;;5088631;28;20470;-78
2022/02/22 10:58:40;;;;;;;4.40;1.53;;;11.10;99.90;;;;;;5089398;28;20540;-78
2022/02/22 11:01:10;;;;;;;3.53;1.10;;;11.10;99.90;;;;;;5090467;28;20459;-80
2022/02/22 11:03:42;;;;;;;2.83;1.23;;;11.00;99.90;;;;;;5087007;28;20458;-80
2022/02/22 11:06:11;;;;;;;2.40;1.20;;;11.00;99.90;;;;;;5079837;28;20474;-78
2022/02/22 11:08:43;;;;;;;1.83;1.17;;;11.10;99.90;;;;;;5089614;28;20461;-78
2022/02/22 11:11:37;;;;;;;2.90;1.23;;;11.00;99.90;;;;;;5089017;28;20458;-79
2022/02/22 11:14:08;;;;;;;2.17;0.83;;;10.70;99.90;;;;;;5089886;28;20448;-78
2022/02/22 11:16:42;;;;;;;1.90;1.00;;;10.60;99.90;;;;;;5084979;28;20453;-78
2022/02/22 11:19:19;;;;;;;5.13;1.00;;;10.70;99.90;;;;;;5072996;28;20972;-78
2022/02/22 11:21:50;;;;;;;2.43;1.30;;;10.70;99.90;;;;;;5076881;28;20461;-79
2022/02/22 11:24:21;;;;;;;4.57;1.00;;;10.90;99.90;;;;;;5081325;28;20945;-78
2022/02/22 11:26:52;;;;;;;2.60;1.00;;;10.80;99.90;;;;;;5102469;28;20465;-78
2022/02/22 11:29:22;;;;;;;3.63;1.07;;;10.40;99.90;;;;;;5089045;28;20813;-78
2022/02/22 11:31:59;;;;;;;1.13;0.90;;;10.40;99.90;;;;;;5078640;28;20460;-78
2022/02/22 11:34:35;;;;;;;3.43;1.07;;;10.40;99.90;;;;;;5088755;28;20451;-78
2022/02/22 11:37:05;;;;;;;3.20;1.00;;;10.30;99.90;;;;;;5075016;28;20466;-78
2022/02/22 11:39:44;;;;;;;3.90;1.20;;;10.30;99.90;;;;;;5086648;28;21036;-78
2022/02/22 11:42:20;;;;;;;3.60;1.30;;;10.20;99.90;;;;;;5086198;28;20531;-79
2022/02/22 11:44:59;;;;;;;2.20;1.00;;;10.20;99.90;;;;;;5083327;28;20861;-79
2022/02/22 11:47:28;;;;;;;1.20;0.87;;;10.10;99.90;;;;;;5085979;28;20473;-79
2022/02/22 11:49:59;;;;;;;3.47;1.07;;;9.90;99.90;;;;;;5081108;28;20541;-78
2022/02/22 11:52:38;;;;;;;2.63;1.23;;;9.80;99.90;;;;;;5083738;28;20484;-78
2022/02/22 11:55:10;;;;;;;2.07;1.17;;;9.90;99.90;;;;;;5071726;28;20471;-79
2022/02/22 11:57:46;;;;;;;1.57;1.00;;;9.90;99.90;;;;;;5072206;28;20451;-77
2022/02/22 12:00:16;;;;;;;3.77;1.20;;;9.90;99.90;;;;;;5078250;28;20450;-78
2022/02/22 12:02:54;;;;;;;3.43;1.00;;;9.90;99.90;;;;;;5088087;28;20576;-77
2022/02/22 12:05:29;;;;;;;2.90;1.20;;;9.70;99.90;;;;;;5088996;28;20943;-79
2022/02/22 12:08:01;;;;;;;2.10;0.90;;;9.60;99.90;;;;;;5081406;28;20885;-78
2022/02/22 12:10:31;;;;;;;2.63;1.07;;;10.20;99.90;;;;;;5077982;28;20448;-78
2022/02/22 12:13:08;;;;;;;3.47;1.30;;;10.40;99.90;;;;;;5075799;28;21035;-79
2022/02/22 12:15:36;;;;;;;4.10;0.90;;;10.60;99.90;;;;;;5074797;28;20456;-77
2022/02/22 12:18:05;;;;;;;4.10;1.40;;;10.60;99.90;;;;;;5072911;28;20462;-78
2022/02/22 12:20:34;;;;;;;2.67;1.00;;;10.50;99.90;;;;;;5079628;28;20445;-78
2022/02/22 12:23:03;;;;;;;6.33;1.70;;;10.60;99.90;;;;;;5076630;28;20471;-78
2022/02/22 12:25:31;;;;;;;3.97;1.13;;;10.70;99.90;;;;;;5087687;28;20447;-78
2022/02/22 12:28:01;;;;;;;7.23;1.87;;;10.70;99.90;;;;;;5089121;28;20473;-78
2022/02/22 12:30:33;;;;;;;2.27;0.90;;;10.70;99.90;;;;;;5089086;28;20456;-77
2022/02/22 12:33:02;;;;;;;4.03;1.03;;;10.70;99.90;;;;;;5093352;28;20856;-79
2022/02/22 12:35:31;;;;;;;7.20;2.40;;;10.80;99.90;;;;;;5079097;28;20449;-79
2022/02/22 12:38:22;;;;;;;3.13;1.10;;;10.80;99.90;;;;;;5082550;28;20470;-77
2022/02/22 12:40:52;;;;;;;2.63;1.40;;;10.80;99.90;;;;;;5084125;28;20463;-79
2022/02/22 12:43:45;;;;;;;8.60;1.10;;;10.80;99.90;;;;;;5090089;28;20468;-78
2022/02/22 12:46:14;;;;;;;3.57;1.13;;;10.80;99.90;;;;;;5087403;28;20445;-78
2022/02/22 12:48:42;;;;;;;7.30;3.30;;;10.90;99.90;;;;;;5087301;28;20873;-79
2022/02/22 12:51:23;;;;;;;8.43;2.80;;;11.00;99.90;;;;;;5083158;28;20454;-79
2022/02/22 12:54:04;;;;;;;8.20;2.83;;;11.20;99.90;;;;;;5087137;28;20469;-79
2022/02/22 12:56:37;;;;;;;2.93;1.07;;;11.30;99.90;;;;;;5084458;28;20461;-78
2022/02/22 12:59:08;;;;;;;4.60;1.07;;;11.40;99.90;;;;;;5083842;28;20537;-78
2022/02/22 13:01:38;;;;;;;2.10;1.33;;;11.30;99.90;;;;;;5078565;28;20456;-78
2022/02/22 13:04:08;;;;;;;3.87;1.30;;;11.10;99.90;;;;;;5080874;28;20457;-80
2022/02/22 13:06:37;;;;;;;3.93;1.40;;;11.10;99.90;;;;;;5088806;28;20459;-80